Time;durP1;ratioP1;P1;durP2;ratioP2;P2;SDS_P1;SDS_P2;PMS_P1;PMS_P2;Temp;Humidity;BMP_temperature;BMP_pressure;BME280_temperature;BME280_humidity;BME280_pressure;Samples;Min_cycle;Max_cycle;Signal;HPM_P1;HPM_P2
2023/04/23 00:00:16;;;;;;;47.20;24.40;;;;;;;5.45;71.40;98720.93;272266;1267;22791;-86
2023/04/23 00:07:26;;;;;;;51.50;26.20;;;;;;;5.26;71.36;98723.77;273986;1267;25331;-86
2023/04/23 00:14:39;;;;;;;46.90;24.40;;;;;;;5.13;72.46;98716.27;269969;1272;22573;-86
2023/04/23 00:21:34;;;;;;;40.30;23.50;;;;;;;5.04;73.35;98714.67;269805;1270;23000;-86
2023/04/23 00:28:14;;;;;;;41.50;23.80;;;;;;;5.08;74.39;98715.44;270485;1271;22533;-86
2023/04/23 00:43:08;;;;;;;42.30;22.40;;;;;;;5.00;74.70;98708.37;271016;1271;23649;-86
2023/04/23 00:50:56;;;;;;;40.00;22.00;;;;;;;4.82;75.15;98707.16;270902;1266;22294;-87
2023/04/23 01:21:48;;;;;;;39.50;24.50;;;;;;;4.35;76.90;98711.64;271442;1270;23271;-86
2023/04/23 01:37:18;;;;;;;37.20;22.90;;;;;;;4.27;78.14;98710.84;272265;1269;25222;-86
2023/04/23 01:45:06;;;;;;;41.60;23.90;;;;;;;4.20;78.22;98712.71;271941;1267;22750;-87
2023/04/23 01:52:33;;;;;;;42.30;23.00;;;;;;;4.10;78.61;98712.00;269785;1276;25435;-87
2023/04/23 02:00:24;;;;;;;31.30;18.80;;;;;;;4.02;79.17;98711.98;270707;1278;22547;-87
2023/04/23 02:07:27;;;;;;;42.30;22.40;;;;;;;4.04;79.58;98712.30;268645;1280;23860;-87
2023/04/23 02:15:33;;;;;;;50.60;26.60;;;;;;;3.93;79.35;98712.95;268971;1279;22619;-86
2023/04/23 02:22:50;;;;;;;40.00;22.70;;;;;;;3.79;79.79;98716.96;269122;1283;22234;-86
2023/04/23 02:30:45;;;;;;;41.60;25.20;;;;;;;3.65;80.10;98715.04;268762;1280;22791;-86
2023/04/23 02:38:17;;;;;;;37.20;24.30;;;;;;;3.58;80.86;98710.00;269203;1275;22527;-86
2023/04/23 02:46:11;;;;;;;40.50;23.20;;;;;;;3.53;81.14;98704.41;270800;1267;24268;-87
2023/04/23 02:53:25;;;;;;;45.40;25.90;;;;;;;3.51;81.59;98704.41;270354;1273;22514;-86
2023/04/23 03:00:51;;;;;;;43.90;25.30;;;;;;;3.46;81.70;98703.07;270245;1273;22942;-86
2023/04/23 03:07:16;;;;;;;37.40;22.60;;;;;;;3.42;82.16;98706.64;272142;1259;22352;-86
2023/04/23 03:37:44;;;;;;;35.90;21.70;;;;;;;3.20;83.37;98707.27;273521;1267;22579;-86
2023/04/23 03:45:50;;;;;;;;;;;;;;;;;;;;;
2023/04/23 03:52:36;;;;;;;31.90;19.20;;;;;;;3.11;84.15;98704.83;272138;1272;23419;-88
2023/04/23 04:00:24;;;;;;;39.00;22.20;;;;;;;3.20;84.28;98706.77;272770;1271;22356;-85
2023/04/23 04:06:48;;;;;;;39.60;22.90;;;;;;;3.21;84.40;98709.95;271297;1266;22631;-87
2023/04/23 04:22:45;;;;;;;36.90;20.80;;;;;;;3.32;85.62;98714.10;270389;1272;22544;-87
2023/04/23 04:30:20;;;;;;;40.20;22.10;;;;;;;3.50;86.37;98711.27;271949;1272;23507;-86
2023/04/23 04:37:44;;;;;;;40.90;23.80;;;;;;;3.70;86.67;98712.94;270955;1272;22400;-87
2023/04/23 04:45:28;;;;;;;37.50;24.10;;;;;;;3.89;87.27;98718.06;272577;1267;22400;-87
2023/04/23 04:53:13;;;;;;;46.40;25.60;;;;;;;4.24;87.98;98718.58;271231;1266;22514;-87
2023/04/23 05:00:17;;;;;;;;;;;;;;;4.76;88.44;98724.27;270617;1267;23148;-87
2023/04/23 05:07:41;;;;;;;;;;;;;;;5.35;88.89;98725.11;273002;1277;22499;-87
2023/04/23 05:15:23;;;;;;;43.60;24.50;;;;;;;5.97;88.97;98720.28;273517;1269;22533;-87
2023/04/23 05:22:26;;;;;;;46.10;25.30;;;;;;;6.55;87.74;98718.64;270587;1270;22456;-87
2023/04/23 05:29:28;;;;;;;47.00;26.80;;;;;;;7.03;86.61;98720.91;271111;1273;22550;-87
2023/04/23 05:37:13;;;;;;;44.40;26.50;;;;;;;7.55;85.80;98718.67;272224;1267;22631;-87
2023/04/23 05:52:07;;;;;;;30.30;18.50;;;;;;;9.15;84.56;98716.57;273225;1270;22226;-85
2023/04/23 06:06:55;;;;;;;31.20;17.80;;;;;;;10.16;81.61;98707.16;271915;1270;22481;-87
2023/04/23 06:14:20;;;;;;;31.70;17.80;;;;;;;10.32;80.91;98708.16;271597;1274;23962;-87
2023/04/23 06:21:21;;;;;;;23.90;15.40;;;;;;;10.57;80.61;98716.48;272535;1272;23681;-88
2023/04/23 06:27:52;;;;;;;21.70;13.90;;;;;;;10.87;79.97;98716.36;272395;1273;25334;-85
2023/04/23 06:35:05;;;;;;;24.30;14.50;;;;;;;11.36;79.71;98715.30;272454;1273;22349;-86
2023/04/23 06:41:49;;;;;;;25.10;15.60;;;;;;;11.93;78.94;98714.20;270730;1276;22371;-86
2023/04/23 06:48:37;;;;;;;21.20;13.50;;;;;;;12.42;77.97;98711.09;271361;1277;22602;-86
2023/04/23 06:54:38;;;;;;;21.10;13.00;;;;;;;12.84;76.99;98705.91;272323;1275;22266;-85
2023/04/23 07:00:49;;;;;;;19.60;11.30;;;;;;;13.19;76.04;98703.01;272272;1276;23428;-85
2023/04/23 07:07:16;;;;;;;19.20;11.20;;;;;;;13.51;75.05;98706.79;271989;1270;23117;-86
2023/04/23 07:13:19;;;;;;;18.30;10.60;;;;;;;13.82;73.61;98697.41;272591;1273;22355;-86
2023/04/23 07:19:22;;;;;;;18.80;12.00;;;;;;;14.20;72.83;98696.12;272330;1273;22724;-88
2023/04/23 07:25:25;;;;;;;20.40;12.90;;;;;;;14.61;72.08;98696.08;272641;1273;22353;-84
2023/04/23 07:31:31;;;;;;;21.30;11.70;;;;;;;15.02;71.03;98689.27;272693;1273;22372;-86
2023/04/23 07:37:45;;;;;;;18.00;10.50;;;;;;;15.52;69.83;98684.08;273415;1251;22624;-86
2023/04/23 07:44:41;;;;;;;21.10;12.10;;;;;;;16.29;68.34;98681.81;273907;1267;22798;-86
2023/04/23 07:51:16;;;;;;;15.80;9.50;;;;;;;17.10;67.61;98675.84;273071;1267;22884;-86
2023/04/23 07:57:18;;;;;;;16.50;8.60;;;;;;;17.85;66.45;98672.98;273566;1266;22766;-86
2023/04/23 08:03:21;;;;;;;12.90;7.40;;;;;;;18.45;65.09;98666.45;273864;1266;22380;-86
2023/04/23 08:09:51;;;;;;;12.50;7.10;;;;;;;18.97;63.40;98657.70;273826;1266;22321;-86
2023/04/23 08:16:32;;;;;;;9.80;6.70;;;;;;;19.54;61.80;98652.24;273991;1267;22336;-86
2023/04/23 08:23:37;;;;;;;10.60;7.00;;;;;;;20.01;60.30;98644.35;273195;1266;22580;-85
2023/04/23 08:30:22;;;;;;;10.40;5.70;;;;;;;20.18;57.89;98639.13;273817;1257;22267;-86
2023/04/23 08:37:12;;;;;;;10.60;5.50;;;;;;;20.42;55.94;98629.30;274031;1257;22738;-86
2023/04/23 08:43:59;;;;;;;8.40;4.60;;;;;;;20.89;53.52;98622.05;272266;1267;22576;-86
2023/04/23 08:50:22;;;;;;;65.60;49.90;;;;;;;20.92;50.80;98615.30;273355;1266;22237;-87
2023/04/23 08:56:40;;;;;;;9.80;7.90;;;;;;;21.00;50.74;98607.98;272236;1267;22242;-87
2023/04/23 09:03:07;;;;;;;7.50;4.40;;;;;;;21.65;50.43;98602.77;273127;1266;22308;-86
2023/04/23 09:09:11;;;;;;;4.40;3.00;;;;;;;22.12;48.85;98595.84;273868;1253;22390;-87
2023/04/23 09:15:27;;;;;;;7.50;3.90;;;;;;;22.63;44.58;98594.36;274078;1266;22220;-86
2023/04/23 09:22:29;;;;;;;4.80;3.20;;;;;;;23.18;41.91;98585.11;273725;1266;22561;-87
2023/04/23 09:29:16;;;;;;;10.10;8.10;;;;;;;23.55;38.21;98581.80;272699;1266;23028;-87
2023/04/23 09:36:10;;;;;;;3.80;2.80;;;;;;;24.10;36.63;98577.31;274175;1253;22338;-87
2023/04/23 09:42:35;;;;;;;16.90;9.60;;;;;;;24.36;36.06;98569.63;273645;1266;22343;-86
2023/04/23 09:49:04;;;;;;;3.80;2.70;;;;;;;24.51;36.82;98565.08;273202;1260;22526;-86
2023/04/23 09:55:11;;;;;;;6.60;3.30;;;;;;;25.42;36.03;98558.52;274140;1266;26163;-85
2023/04/23 10:01:32;;;;;;;3.90;2.90;;;;;;;26.24;33.62;98557.58;273581;1267;23630;-86
2023/04/23 10:07:44;;;;;;;7.40;2.80;;;;;;;26.31;32.68;98554.14;273058;1267;22347;-85
2023/04/23 10:14:11;;;;;;;6.00;3.00;;;;;;;27.01;31.79;98545.86;273529;1267;22555;-86
2023/04/23 10:21:02;;;;;;;4.60;2.70;;;;;;;27.44;31.11;98531.32;274157;1266;22212;-88
2023/04/23 10:34:52;;;;;;;3.90;2.80;;;;;;;28.11;28.93;98520.27;271188;1270;22477;-89
2023/04/23 10:41:38;;;;;;;12.40;6.80;;;;;;;27.97;27.63;98506.48;271028;1270;22396;-87
2023/04/23 10:48:07;;;;;;;4.50;2.30;;;;;;;27.91;28.02;98499.08;273109;1270;22525;-87
2023/04/23 10:54:35;;;;;;;3.50;2.30;;;;;;;27.67;27.99;98500.30;270957;1267;22315;-86
2023/04/23 11:00:45;;;;;;;3.40;2.40;;;;;;;27.75;27.30;98496.50;273905;1266;22352;-86
2023/04/23 11:06:46;;;;;;;4.90;2.50;;;;;;;27.13;27.59;98498.87;273927;1266;22467;-85
2023/04/23 11:12:48;;;;;;;3.70;2.30;;;;;;;26.46;28.00;98491.82;273830;1266;22613;-85
2023/04/23 11:19:19;;;;;;;3.80;2.50;;;;;;;27.15;27.88;98484.28;273178;1266;22505;-85
2023/04/23 11:25:25;;;;;;;4.60;2.50;;;;;;;28.49;27.37;98480.55;273600;1267;22222;-85
2023/04/23 11:31:27;;;;;;;8.30;2.80;;;;;;;28.85;25.09;98474.59;273499;1260;23361;-86
2023/04/23 11:37:29;;;;;;;9.50;2.70;;;;;;;28.17;25.14;98471.02;269951;1267;5054514;-86
2023/04/23 11:43:57;;;;;;;4.10;3.00;;;;;;;26.98;25.37;98473.52;273939;1266;22221;-86
2023/04/23 11:50:20;;;;;;;4.80;3.20;;;;;;;26.58;25.77;98469.04;273982;1266;23450;-86
2023/04/23 11:56:44;;;;;;;5.00;2.60;;;;;;;26.76;25.74;98455.73;273961;1266;22281;-85
2023/04/23 12:03:18;;;;;;;;;;;;;;;;;;;;;
2023/04/23 12:09:25;;;;;;;4.60;2.60;;;;;;;26.62;25.28;98455.36;273540;1257;22236;-86
2023/04/23 12:15:59;;;;;;;2.80;2.50;;;;;;;25.38;24.66;98446.83;273563;1266;23819;-87
2023/04/23 12:23:14;;;;;;;5.50;2.50;;;;;;;25.04;25.73;98440.03;273724;1267;22324;-86
2023/04/23 12:30:16;;;;;;;4.20;2.10;;;;;;;24.95;26.10;98436.27;273930;1266;22392;-86
2023/04/23 12:36:35;;;;;;;5.40;2.60;;;;;;;25.18;26.31;98434.14;273476;1271;22284;-85
2023/04/23 12:42:36;;;;;;;3.90;2.50;;;;;;;25.43;25.93;98431.38;273220;1259;22243;-86
2023/04/23 12:48:48;;;;;;;3.90;2.60;;;;;;;25.02;25.76;98420.09;273098;1264;22680;-87
2023/04/23 12:55:10;;;;;;;3.80;2.40;;;;;;;24.77;25.49;98409.83;273116;1272;22315;-87
2023/04/23 13:01:20;;;;;;;4.30;2.80;;;;;;;24.81;25.97;98405.41;273233;1270;22579;-86
2023/04/23 13:07:47;;;;;;;2.90;2.50;;;;;;;24.89;26.35;98403.00;273877;1266;22414;-85
2023/04/23 13:13:48;;;;;;;;;;;;;;;24.64;26.67;98394.16;273731;1267;23715;-86
2023/04/23 13:21:01;;;;;;;3.90;2.50;;;;;;;24.73;25.98;98387.19;273952;1266;23124;-86
2023/04/23 13:27:06;;;;;;;3.30;2.50;;;;;;;24.54;25.95;98382.80;274130;1267;22968;-85
2023/04/23 13:33:24;;;;;;;2.90;2.30;;;;;;;24.50;25.96;98375.14;273751;1266;23384;-85
2023/04/23 13:39:30;;;;;;;5.70;2.80;;;;;;;24.92;26.35;98369.74;273836;1251;22312;-86
2023/04/23 13:45:31;;;;;;;4.10;3.00;;;;;;;24.95;25.06;98372.09;274139;1266;22319;-85
2023/04/23 13:52:26;;;;;;;4.40;2.50;;;;;;;25.04;25.36;98365.14;273990;1251;23467;-86
2023/04/23 13:58:29;;;;;;;4.00;2.40;;;;;;;25.22;25.11;98353.80;273964;1266;22410;-86
2023/04/23 14:04:30;;;;;;;5.20;2.40;;;;;;;25.23;25.30;98345.61;274046;1267;22452;-86
2023/04/23 14:10:33;;;;;;;2.80;2.20;;;;;;;25.27;25.02;98336.45;273795;1267;22444;-85
2023/04/23 14:17:00;;;;;;;3.60;2.40;;;;;;;24.83;25.09;98329.70;274105;1266;22482;-86
2023/04/23 14:23:24;;;;;;;3.70;2.40;;;;;;;24.56;24.82;98324.48;273664;1267;22510;-86
2023/04/23 14:30:18;;;;;;;6.10;2.80;;;;;;;24.21;24.91;98319.69;273277;1266;22599;-86
2023/04/23 14:37:15;;;;;;;3.20;2.40;;;;;;;23.83;25.75;98317.23;273244;1266;22525;-86
2023/04/23 14:43:18;;;;;;;6.90;2.70;;;;;;;23.55;26.33;98317.21;273861;1266;23004;-87
2023/04/23 14:49:50;;;;;;;4.60;2.90;;;;;;;23.30;26.99;98320.55;273608;1266;22540;-85
2023/04/23 14:55:56;;;;;;;3.40;2.40;;;;;;;23.24;27.57;98323.23;273665;1266;23354;-86
2023/04/23 15:02:47;;;;;;;4.70;2.50;;;;;;;23.34;26.91;98321.16;273582;1267;23259;-86
2023/04/23 15:08:49;;;;;;;6.20;2.50;;;;;;;23.46;27.22;98317.84;273845;1266;22462;-87
2023/04/23 15:22:39;;;;;;;4.90;2.60;;;;;;;23.24;27.22;98307.02;273924;1261;22271;-86
2023/04/23 15:29:12;;;;;;;6.50;4.20;;;;;;;22.98;26.91;98299.65;272239;1267;23202;-86
2023/04/23 15:35:13;;;;;;;7.80;2.80;;;;;;;22.91;26.65;98296.34;271487;1267;22325;-86
2023/04/23 15:41:23;;;;;;;6.70;2.60;;;;;;;22.64;26.70;98297.09;272217;1267;22532;-86
2023/04/23 15:48:17;;;;;;;30.20;24.30;;;;;;;22.29;27.36;98295.76;270733;1262;22536;-86
2023/04/23 15:54:19;;;;;;;6.10;4.20;;;;;;;22.07;27.37;98290.70;271102;1257;22325;-86
2023/04/23 16:01:30;;;;;;;4.20;2.90;;;;;;;21.90;27.84;98285.27;273512;1266;22523;-86
2023/04/23 16:07:52;;;;;;;5.00;3.10;;;;;;;21.80;28.07;98280.90;272034;1266;22202;-87
2023/04/23 16:13:57;;;;;;;8.30;4.30;;;;;;;21.58;28.03;98278.33;273913;1259;22733;-87
2023/04/23 16:20:48;;;;;;;11.00;6.90;;;;;;;21.33;28.43;98270.76;273753;1267;22323;-86
2023/04/23 16:27:22;;;;;;;;;;;;;;;21.06;28.88;98272.40;271463;1267;22506;-86
2023/04/23 16:34:31;;;;;;;11.30;7.60;;;;;;;20.91;29.22;98271.52;274125;1267;22356;-86
2023/04/23 16:41:09;;;;;;;9.20;5.50;;;;;;;20.74;29.74;98264.98;272867;1272;22328;-86
2023/04/23 16:47:14;;;;;;;5.50;3.80;;;;;;;20.52;29.92;98263.44;272972;1272;22512;-86
2023/04/23 16:53:28;;;;;;;7.20;4.00;;;;;;;20.24;30.29;98258.52;272958;1272;22422;-86
2023/04/23 16:59:30;;;;;;;8.50;5.90;;;;;;;19.85;30.94;98259.77;272987;1270;22374;-86
2023/04/23 17:05:33;;;;;;;12.90;7.40;;;;;;;19.48;31.73;98261.21;273070;1272;22273;-86
2023/04/23 17:12:15;;;;;;;10.30;6.70;;;;;;;19.27;32.05;98260.61;273722;1266;22406;-86
2023/04/23 17:18:17;;;;;;;13.90;9.70;;;;;;;19.03;32.15;98260.73;273483;1267;23850;-86
2023/04/23 17:24:18;;;;;;;9.40;6.40;;;;;;;18.79;33.20;98259.02;273516;1266;22505;-86
2023/04/23 17:30:20;;;;;;;11.30;5.50;;;;;;;18.58;33.91;98256.45;273969;1269;22293;-86
2023/04/23 17:36:36;;;;;;;7.80;5.30;;;;;;;18.42;34.89;98258.02;273841;1267;22415;-86
2023/04/23 17:42:52;;;;;;;8.20;6.50;;;;;;;18.20;35.11;98258.10;273970;1267;22328;-86
2023/04/23 17:49:09;;;;;;;9.70;6.30;;;;;;;18.20;34.45;98256.78;273846;1267;22323;-86
2023/04/23 17:55:13;;;;;;;13.10;7.30;;;;;;;18.29;34.08;98259.66;273993;1266;22260;-86
2023/04/23 18:01:43;;;;;;;24.20;15.00;;;;;;;18.31;34.24;98262.27;273465;1271;22604;-86
2023/04/23 18:08:19;;;;;;;11.10;6.40;;;;;;;18.06;35.74;98265.74;273929;1267;24177;-86
2023/04/23 18:14:43;;;;;;;32.90;22.30;;;;;;;17.81;36.01;98273.95;273386;1262;23706;-86
2023/04/23 18:21:37;;;;;;;15.70;11.60;;;;;;;17.62;36.04;98280.58;273531;1267;22209;-87
2023/04/23 18:28:25;;;;;;;8.00;5.50;;;;;;;17.47;36.20;98284.02;273637;1262;22326;-86
2023/04/23 18:34:42;;;;;;;10.40;6.40;;;;;;;17.36;36.37;98284.36;273463;1273;22974;-86
2023/04/23 18:40:47;;;;;;;11.20;7.30;;;;;;;17.33;36.37;98284.68;266337;1269;10002451;-86
2023/04/23 18:46:54;;;;;;;10.20;6.10;;;;;;;17.38;36.52;98285.83;273735;1267;22312;-87
2023/04/23 18:53:36;;;;;;;14.10;6.80;;;;;;;17.35;36.76;98284.70;273550;1267;22907;-88
2023/04/23 19:00:45;;;;;;;8.70;5.20;;;;;;;17.16;37.01;98289.31;273291;1266;22432;-86
2023/04/23 19:06:49;;;;;;;12.00;6.30;;;;;;;17.01;37.23;98289.33;274029;1266;22320;-87
2023/04/23 19:13:12;;;;;;;9.30;5.50;;;;;;;17.01;37.41;98287.29;272745;1266;22556;-86
2023/04/23 19:20:09;;;;;;;12.60;6.90;;;;;;;16.95;37.68;98283.88;272716;1275;22241;-86
2023/04/23 19:26:11;;;;;;;11.70;7.80;;;;;;;16.79;38.07;98287.58;272471;1275;22455;-85
2023/04/23 19:32:17;;;;;;;9.60;5.60;;;;;;;16.56;38.21;98286.52;273905;1270;22407;-85
2023/04/23 19:45:33;;;;;;;8.20;5.70;;;;;;;16.19;38.71;98283.33;274020;1269;22473;-86
2023/04/23 19:52:05;;;;;;;9.50;5.40;;;;;;;15.95;39.21;98280.38;274028;1267;22409;-86
2023/04/23 19:58:11;;;;;;;8.30;5.20;;;;;;;15.68;40.33;98281.36;273978;1267;22202;-85
2023/04/23 20:04:15;;;;;;;11.10;5.60;;;;;;;15.36;41.12;98284.42;272418;1266;22312;-86
2023/04/23 20:10:18;;;;;;;9.20;5.50;;;;;;;15.10;41.96;98281.11;273830;1267;22304;-86
2023/04/23 20:23:36;;;;;;;10.10;6.10;;;;;;;14.58;41.89;98270.61;273936;1267;23577;-87
2023/04/23 20:29:37;;;;;;;8.80;5.40;;;;;;;14.47;42.31;98266.07;274069;1257;22401;-87
2023/04/23 20:36:24;;;;;;;;;;;;;;;;;;;;;
2023/04/23 20:43:31;;;;;;;11.80;6.90;;;;;;;14.14;43.74;98266.23;273279;1267;22546;-86
2023/04/23 20:49:41;;;;;;;11.40;7.40;;;;;;;13.93;45.45;98267.77;273491;1267;25416;-87
2023/04/23 20:55:46;;;;;;;13.70;8.30;;;;;;;13.67;46.87;98267.65;272621;1257;22503;-85
2023/04/23 21:02:16;;;;;;;18.10;10.40;;;;;;;13.46;47.97;98269.65;273003;1267;22527;-86
2023/04/23 21:08:19;;;;;;;19.50;10.80;;;;;;;13.34;48.57;98274.27;272278;1266;22517;-84
2023/04/23 21:15:13;;;;;;;16.00;9.40;;;;;;;13.12;49.02;98290.75;273280;1267;22351;-86
2023/04/23 21:22:13;;;;;;;14.90;9.90;;;;;;;12.89;49.45;98291.27;273860;1265;22368;-86
2023/04/23 21:28:44;;;;;;;14.30;9.90;;;;;;;12.73;49.04;98292.28;273297;1266;23435;-85
2023/04/23 21:35:06;;;;;;;18.40;10.30;;;;;;;12.55;50.50;98289.44;272937;1267;22604;-85
2023/04/23 21:41:07;;;;;;;19.60;12.00;;;;;;;12.40;50.89;98287.36;273242;1267;24860;-86
2023/04/23 21:47:36;;;;;;;17.30;10.10;;;;;;;12.23;51.24;98284.27;273305;1267;23506;-85
2023/04/23 21:54:05;;;;;;;16.30;10.00;;;;;;;12.01;51.55;98285.90;273250;1270;24259;-86
2023/04/23 22:00:57;;;;;;;16.50;9.10;;;;;;;11.76;52.11;98284.09;273881;1268;22605;-87
2023/04/23 22:07:45;;;;;;;12.10;8.80;;;;;;;11.54;52.65;98278.60;273298;1267;23751;-87
2023/04/23 22:14:09;;;;;;;12.90;8.30;;;;;;;11.36;53.43;98269.50;273952;1267;22315;-86
2023/04/23 22:20:32;;;;;;;12.60;7.60;;;;;;;11.28;54.23;98277.59;273841;1267;22333;-86
2023/04/23 22:27:16;;;;;;;10.70;7.90;;;;;;;11.13;54.59;98280.92;273051;1267;22367;-87
2023/04/23 22:33:27;;;;;;;11.30;8.30;;;;;;;10.90;54.82;98279.33;273500;1270;23108;-86
2023/04/23 22:39:53;;;;;;;10.90;7.30;;;;;;;10.65;55.35;98271.45;272296;1267;23318;-87
2023/04/23 22:46:41;;;;;;;10.00;7.20;;;;;;;10.43;56.37;98268.26;271805;1270;23098;-87
2023/04/23 22:53:21;;;;;;;13.00;8.60;;;;;;;10.31;56.70;98268.33;272307;1270;22271;-86
2023/04/23 22:59:24;;;;;;;11.20;8.00;;;;;;;10.12;57.35;98261.42;273045;1276;23121;-87
2023/04/23 23:05:27;;;;;;;10.70;7.40;;;;;;;9.93;58.66;98258.71;272534;1257;23186;-87
2023/04/23 23:12:34;;;;;;;13.00;7.30;;;;;;;9.82;59.92;98255.26;271709;1272;22533;-87
2023/04/23 23:19:17;;;;;;;17.80;8.80;;;;;;;9.80;60.08;98253.30;272311;1268;23171;-87
2023/04/23 23:26:35;;;;;;;14.40;7.80;;;;;;;9.62;60.47;98247.00;271803;1267;22550;-87
2023/04/23 23:33:17;;;;;;;15.60;9.20;;;;;;;9.42;60.74;98246.63;272186;1270;22276;-87
2023/04/23 23:40:45;;;;;;;16.50;9.50;;;;;;;9.20;61.26;98241.47;267993;1270;5046810;-87
2023/04/23 23:47:27;;;;;;;14.00;8.90;;;;;;;8.99;61.88;98244.88;272212;1270;22342;-87
2023/04/23 23:54:05;;;;;;;13.00;7.50;;;;;;;8.88;63.25;98242.95;273251;1270;22592;-87
